Flugplatz Ansbach Army Heliport

Bericht für ETEB

vom 14.11. um 09:56 UTC

Wind 9 kt aus 110°

Sichtweite 10 km oder mehr

keine Wolken

Temperatur 2.5°C

Taupunkt 1.8°C

Luftfeuchtigkeit 95%

Luftdruck 1005 hPa

ETEB 140956Z AUTO 11009KT 9999 CLR 03/02 A2967 RMK AO2 SLP077 T00250018 $

Prognose für ETEB

vom 14.11. um 00:00 UTC

Zwischen 00:00 UTC und 00:00 UTC

Wind 6 kt aus 120°

Sichtweite 10 km oder mehr

gering bewölkt in 3000 ft


Zwischen 00:00 und 00:00 UTC übergehend zu

Wind 10 kt aus 130° in Böen 15 kt

Sichtweite 10 km oder mehr

aufgelockert bewölkt in 2000 ft


Zwischen 00:00 und 00:00 UTC übergehend zu

Wind 9 kt aus 110°

Sichtweite 10 km oder mehr

aufgelockert bewölkt in 1500 ft


Zwischen 00:00 und 00:00 UTC übergehend zu

Wind 9 kt aus 60°

Sichtweite 10 km oder mehr

aufgelockert bewölkt in 3000 ft


Am 15.11. zwischen 00:00 und 00:00 UTC übergehend zu

variable Windrichtung mit 6 kt

Sichtweite 10 km oder mehr

aufgebrochene Bewölkung in 3000 ft

TAF ETEB 140600Z 1406/1512 12006KT 9999 FEW030 QNH2964INS BECMG 1409/1410 13010G15KT 9999 SCT020 QNH2962INS BECMG 1414/1415 11009KT 9999 SCT015 QNH2944INS BECMG 1419/1420 06009KT 9999 SCT030 QNH2947INS BECMG 1508/1509 VRB06KT 9999 BKN030 QNH2953INS TX07/1412Z TNM01/1506Z
Impressum